Time;durP1;ratioP1;P1;durP2;ratioP2;P2;SDS_P1;SDS_P2;PMS_P1;PMS_P2;Temp;Humidity;BMP_temperature;BMP_pressure;BME280_temperature;BME280_humidity;BME280_pressure;Samples;Min_cycle;Max_cycle;Signal;HPM_P1;HPM_P2
2023/06/05 00:00:11;;;;;;;3.38;2.25;;;23.10;56.30;;;;;;6178798;28;81394;-58
2023/06/05 00:03:14;;;;;;;3.22;2.38;;;23.00;57.10;;;;;;6199850;28;82295;-58
2023/06/05 00:06:15;;;;;;;2.67;2.00;;;23.00;57.20;;;;;;6203968;28;81613;-57
2023/06/05 00:09:15;;;;;;;2.88;2.03;;;23.00;56.30;;;;;;6202711;28;82494;-59
2023/06/05 00:12:16;;;;;;;3.65;2.63;;;23.10;56.60;;;;;;6198749;28;81269;-60
2023/06/05 00:15:16;;;;;;;5.03;2.63;;;23.00;56.30;;;;;;6193168;28;80847;-59
2023/06/05 00:18:17;;;;;;;4.00;3.03;;;23.00;56.70;;;;;;6199101;28;82603;-58
2023/06/05 00:21:19;;;;;;;4.65;2.30;;;23.00;56.30;;;;;;6203840;28;83470;-59
2023/06/05 00:24:20;;;;;;;3.33;2.17;;;23.00;56.40;;;;;;6184573;28;83828;-58
2023/06/05 00:27:20;;;;;;;4.60;2.40;;;23.00;56.00;;;;;;6202887;28;81328;-58
2023/06/05 00:30:21;;;;;;;3.58;2.33;;;23.00;56.10;;;;;;6202452;28;80509;-60
2023/06/05 00:33:21;;;;;;;4.80;2.20;;;23.00;55.90;;;;;;6202332;28;80243;-60
2023/06/05 00:36:23;;;;;;;4.80;2.20;;;23.00;55.40;;;;;;6203834;28;80489;-58
2023/06/05 00:39:24;;;;;;;4.03;2.30;;;23.00;55.40;;;;;;6202775;28;80553;-58
2023/06/05 00:42:26;;;;;;;3.72;2.17;;;23.00;56.70;;;;;;6201042;28;80412;-63
2023/06/05 00:45:26;;;;;;;2.95;1.90;;;23.00;57.10;;;;;;6193967;28;82547;-64
2023/06/05 00:48:27;;;;;;;4.72;2.75;;;23.00;56.20;;;;;;6196810;28;80349;-63
2023/06/05 00:51:28;;;;;;;3.63;2.38;;;23.00;56.50;;;;;;6186542;28;83493;-65
2023/06/05 00:54:29;;;;;;;4.00;2.70;;;23.00;56.90;;;;;;6178728;28;80914;-65
2023/06/05 00:57:29;;;;;;;4.05;2.58;;;23.00;55.60;;;;;;6178540;28;80505;-65
2023/06/05 01:00:30;;;;;;;7.90;2.85;;;23.00;56.10;;;;;;6177293;28;82473;-64
2023/06/05 01:03:33;;;;;;;3.38;2.15;;;23.00;56.00;;;;;;6180027;28;83319;-62
2023/06/05 01:06:34;;;;;;;2.90;2.22;;;23.10;55.60;;;;;;6178482;28;84450;-64
2023/06/05 01:09:35;;;;;;;3.35;2.28;;;23.00;55.80;;;;;;6161654;28;82168;-63
2023/06/05 01:12:36;;;;;;;2.65;2.00;;;23.00;55.80;;;;;;6181308;28;80994;-62
2023/06/05 01:15:36;;;;;;;3.83;2.25;;;23.00;55.80;;;;;;6180823;28;80903;-61
2023/06/05 01:18:40;;;;;;;3.35;2.00;;;23.00;55.60;;;;;;6170086;28;83568;-63
2023/06/05 01:21:41;;;;;;;3.63;2.20;;;23.00;55.80;;;;;;6190231;28;80381;-63
2023/06/05 01:24:41;;;;;;;3.83;2.50;;;23.00;55.40;;;;;;6187002;28;82958;-63
2023/06/05 01:27:42;;;;;;;3.20;2.03;;;23.00;55.20;;;;;;6183946;28;81216;-64
2023/06/05 01:30:44;;;;;;;5.10;2.58;;;23.00;55.40;;;;;;6190876;28;80548;-63
2023/06/05 01:33:45;;;;;;;4.43;2.63;;;23.00;55.80;;;;;;6178815;28;84081;-60
2023/06/05 01:36:47;;;;;;;2.92;2.00;;;23.00;55.40;;;;;;6159856;28;81350;-62
2023/06/05 01:39:47;;;;;;;4.40;2.72;;;23.00;55.10;;;;;;6184771;28;80906;-61
2023/06/05 01:42:48;;;;;;;3.97;2.30;;;23.00;55.30;;;;;;6177226;28;83667;-61
2023/06/05 01:45:48;;;;;;;5.25;2.63;;;22.90;55.30;;;;;;6191234;28;80655;-62
2023/06/05 01:48:51;;;;;;;3.08;1.80;;;22.90;54.90;;;;;;6200877;28;80289;-61
2023/06/05 01:51:51;;;;;;;4.38;2.30;;;22.90;54.60;;;;;;6199665;28;80427;-62
2023/06/05 01:54:52;;;;;;;4.38;2.63;;;22.90;55.20;;;;;;6182445;28;83368;-59
2023/06/05 01:57:53;;;;;;;3.38;1.92;;;23.00;54.40;;;;;;6201183;28;80038;-57
2023/06/05 02:00:54;;;;;;;3.75;2.25;;;22.90;54.80;;;;;;6180907;28;83180;-58
2023/06/05 02:03:57;;;;;;;4.55;2.35;;;22.90;54.60;;;;;;6199244;28;80527;-58
2023/06/05 02:07:03;;;;;;;3.17;1.98;;;22.90;54.40;;;;;;6187995;28;82872;-58
2023/06/05 02:10:05;;;;;;;2.30;1.77;;;22.90;54.30;;;;;;6198553;28;81729;-59
2023/06/05 02:13:05;;;;;;;4.15;2.38;;;22.90;54.30;;;;;;6181802;28;83119;-58
2023/06/05 02:16:06;;;;;;;3.50;2.00;;;22.90;53.90;;;;;;6195127;28;81409;-58
2023/06/05 02:19:07;;;;;;;3.25;2.38;;;22.90;53.50;;;;;;6167545;28;80507;-58
2023/06/05 02:22:07;;;;;;;3.10;1.90;;;23.00;53.50;;;;;;6200961;28;81010;-58
2023/06/05 02:25:08;;;;;;;3.95;2.25;;;23.00;53.60;;;;;;6188370;28;83383;-59
2023/06/05 02:28:08;;;;;;;5.75;2.50;;;23.00;53.70;;;;;;6175225;28;83370;-59
2023/06/05 02:31:10;;;;;;;3.95;2.33;;;23.00;53.90;;;;;;6188397;28;82611;-58
2023/06/05 02:34:11;;;;;;;4.13;2.40;;;22.90;54.10;;;;;;6186865;28;81038;-59
2023/06/05 02:37:12;;;;;;;3.75;2.17;;;22.90;53.60;;;;;;6154444;28;83510;-58
2023/06/05 02:40:13;;;;;;;4.50;2.65;;;22.90;53.80;;;;;;6173870;28;83289;-58
2023/06/05 02:43:14;;;;;;;3.95;2.28;;;22.90;53.80;;;;;;6195348;28;80382;-57
2023/06/05 02:46:14;;;;;;;2.75;2.17;;;22.90;53.70;;;;;;6177136;28;82867;-57
2023/06/05 02:49:16;;;;;;;4.40;2.00;;;22.90;53.70;;;;;;6182182;28;82826;-61
2023/06/05 02:52:16;;;;;;;3.47;2.28;;;22.90;53.60;;;;;;6177918;28;82786;-62
2023/06/05 02:55:18;;;;;;;4.85;2.67;;;22.90;53.30;;;;;;6174769;28;82707;-63
2023/06/05 02:58:21;;;;;;;5.05;2.47;;;22.90;53.10;;;;;;6181186;28;84301;-61
2023/06/05 03:01:34;;;;;;;5.25;2.53;;;23.00;53.00;;;;;;6162664;28;82083;-64
2023/06/05 03:04:39;;;;;;;8.20;3.25;;;23.00;52.90;;;;;;6166234;28;82603;-64
2023/06/05 03:07:40;;;;;;;4.38;2.67;;;23.00;52.90;;;;;;6156988;28;83247;-64
2023/06/05 03:10:41;;;;;;;6.03;2.50;;;22.90;52.90;;;;;;6168500;28;82995;-63
2023/06/05 03:13:43;;;;;;;3.42;2.08;;;22.90;53.00;;;;;;6179394;28;83267;-61
2023/06/05 03:16:45;;;;;;;4.70;2.42;;;22.90;52.40;;;;;;6196702;28;83098;-62
2023/06/05 03:19:48;;;;;;;4.57;2.60;;;22.90;52.70;;;;;;6181990;28;82962;-62
2023/06/05 03:22:49;;;;;;;3.40;2.40;;;22.90;52.90;;;;;;6202205;28;80605;-62
2023/06/05 03:25:51;;;;;;;3.85;2.58;;;22.90;52.50;;;;;;6183506;28;88648;-62
2023/06/05 03:28:53;;;;;;;3.88;2.35;;;22.90;52.40;;;;;;6186188;28;83332;-63
2023/06/05 03:31:55;;;;;;;4.60;2.67;;;22.90;52.50;;;;;;6179823;28;81589;-60
2023/06/05 03:34:55;;;;;;;4.30;2.78;;;22.90;52.00;;;;;;6185831;28;83074;-62
2023/06/05 03:37:56;;;;;;;3.53;2.63;;;22.90;51.80;;;;;;6186509;28;83769;-62
2023/06/05 03:40:56;;;;;;;3.53;2.55;;;22.90;51.60;;;;;;6201026;28;80666;-67
2023/06/05 03:43:58;;;;;;;2.70;2.25;;;22.90;51.60;;;;;;6178670;28;81419;-66
2023/06/05 03:46:59;;;;;;;5.35;2.45;;;22.90;51.60;;;;;;6181456;28;83168;-65
2023/06/05 03:50:02;;;;;;;4.50;2.70;;;22.90;51.70;;;;;;6171901;28;83089;-63
2023/06/05 03:53:04;;;;;;;5.80;2.53;;;22.80;51.80;;;;;;6184107;28;81694;-63
2023/06/05 03:56:06;;;;;;;3.70;2.40;;;22.80;51.70;;;;;;6175101;28;83164;-67
2023/06/05 03:59:19;;;;;;;5.07;2.90;;;22.90;51.50;;;;;;6172671;28;83050;-66
2023/06/05 04:02:21;;;;;;;3.83;2.22;;;22.90;51.60;;;;;;6202062;28;89264;-68
2023/06/05 04:05:22;;;;;;;5.28;2.53;;;23.00;51.50;;;;;;6184108;28;80831;-69
2023/06/05 04:08:24;;;;;;;3.95;2.47;;;23.00;51.60;;;;;;6180170;28;83110;-65
2023/06/05 04:11:28;;;;;;;4.85;2.22;;;23.00;51.70;;;;;;6171619;28;82612;-77
2023/06/05 04:14:31;;;;;;;7.95;2.60;;;23.00;51.60;;;;;;6190817;28;86067;-71
2023/06/05 04:17:32;;;;;;;6.55;2.72;;;23.00;51.60;;;;;;6184397;28;83144;-66
2023/06/05 04:20:33;;;;;;;6.88;2.45;;;23.00;51.90;;;;;;6177151;28;83236;-68
2023/06/05 04:23:34;;;;;;;3.80;2.83;;;23.00;52.00;;;;;;6184769;28;82700;-62
2023/06/05 04:26:35;;;;;;;2.90;2.10;;;23.00;52.00;;;;;;6189899;28;80474;-61
2023/06/05 04:29:35;;;;;;;5.60;2.72;;;23.00;52.40;;;;;;6193096;28;80370;-66
2023/06/05 04:32:38;;;;;;;10.18;3.22;;;23.00;53.00;;;;;;6186846;28;81641;-66
2023/06/05 04:35:39;;;;;;;5.28;2.38;;;23.00;53.00;;;;;;6173126;28;83022;-67
2023/06/05 04:38:40;;;;;;;6.95;2.65;;;23.00;53.10;;;;;;6182443;28;83560;-68
2023/06/05 04:41:44;;;;;;;8.40;3.05;;;23.00;53.80;;;;;;6184466;28;83212;-66
2023/06/05 04:44:47;;;;;;;3.08;2.17;;;23.10;53.10;;;;;;6176452;28;83429;-66
2023/06/05 04:47:47;;;;;;;5.32;2.42;;;23.10;53.10;;;;;;6191963;28;80239;-66
2023/06/05 04:50:48;;;;;;;6.53;2.22;;;23.10;53.10;;;;;;6201676;28;82136;-68
2023/06/05 04:53:52;;;;;;;12.90;2.80;;;23.20;53.20;;;;;;6183400;28;83407;-64
2023/06/05 04:56:54;;;;;;;10.20;2.50;;;23.20;53.10;;;;;;6181580;28;82069;-67
2023/06/05 04:59:56;;;;;;;5.30;2.08;;;23.20;53.00;;;;;;6181302;28;83309;-66
2023/06/05 05:02:59;;;;;;;7.35;3.15;;;23.10;52.90;;;;;;6179015;28;83264;-67
2023/06/05 05:06:00;;;;;;;11.98;3.05;;;23.10;52.70;;;;;;6179925;28;83780;-68
2023/06/05 05:09:01;;;;;;;6.55;2.42;;;23.10;52.60;;;;;;6197703;28;82825;-65
2023/06/05 05:12:02;;;;;;;6.75;2.47;;;23.10;52.40;;;;;;6180658;28;83716;-65
2023/06/05 05:15:03;;;;;;;13.00;3.00;;;23.10;52.30;;;;;;6182584;28;81089;-63
2023/06/05 05:18:04;;;;;;;5.80;2.85;;;23.10;52.20;;;;;;6198329;28;83443;-67
2023/06/05 05:21:06;;;;;;;13.13;2.78;;;23.00;51.60;;;;;;6174678;28;83508;-62
2023/06/05 05:24:08;;;;;;;6.85;2.70;;;23.10;51.20;;;;;;6150111;28;85175;-63
2023/06/05 05:27:08;;;;;;;5.45;3.10;;;23.10;51.60;;;;;;6155847;28;83100;-61
2023/06/05 05:30:09;;;;;;;7.13;3.08;;;23.10;51.60;;;;;;6178426;28;83322;-62
2023/06/05 05:33:10;;;;;;;8.15;3.20;;;23.00;51.40;;;;;;6179107;28;82027;-61
2023/06/05 05:36:11;;;;;;;7.38;2.90;;;23.00;51.40;;;;;;6173173;28;82009;-63
2023/06/05 05:39:12;;;;;;;8.05;3.38;;;23.00;51.20;;;;;;6163053;28;84804;-64
2023/06/05 05:42:12;;;;;;;3.75;2.83;;;23.00;50.90;;;;;;6182382;28;80541;-65
2023/06/05 05:45:13;;;;;;;3.95;2.58;;;23.10;50.80;;;;;;6186901;28;80811;-65
2023/06/05 05:48:13;;;;;;;5.03;2.85;;;23.10;50.80;;;;;;6188551;28;82056;-67
2023/06/05 05:51:14;;;;;;;5.45;2.92;;;23.10;50.60;;;;;;6188248;28;80558;-64
2023/06/05 05:54:15;;;;;;;4.22;2.60;;;23.10;50.60;;;;;;6195290;28;80975;-64
2023/06/05 05:57:15;;;;;;;8.45;3.20;;;23.10;50.50;;;;;;6188830;28;80916;-64
2023/06/05 06:00:16;;;;;;;5.82;3.03;;;23.10;50.50;;;;;;6194507;28;80536;-66
2023/06/05 06:03:16;;;;;;;11.18;3.10;;;23.20;50.50;;;;;;6190522;28;81525;-64
2023/06/05 06:06:17;;;;;;;6.88;2.80;;;23.10;50.50;;;;;;6177114;28;82841;-65
2023/06/05 06:09:18;;;;;;;4.53;2.78;;;23.10;50.40;;;;;;6176518;28;82771;-65
2023/06/05 06:12:18;;;;;;;7.65;3.45;;;23.10;50.50;;;;;;6186042;28;80827;-65
2023/06/05 06:15:19;;;;;;;4.13;2.60;;;23.10;50.50;;;;;;6198533;28;80374;-64
2023/06/05 06:18:19;;;;;;;4.95;3.30;;;23.10;50.40;;;;;;6188159;28;80721;-65
2023/06/05 06:21:20;;;;;;;6.13;2.83;;;23.10;50.40;;;;;;6199145;28;81749;-64
2023/06/05 06:24:21;;;;;;;5.85;2.72;;;23.10;50.30;;;;;;6197850;28;81986;-65
2023/06/05 06:27:22;;;;;;;7.32;2.88;;;23.10;50.40;;;;;;6200502;28;81024;-64
2023/06/05 06:30:22;;;;;;;4.75;2.42;;;23.10;50.20;;;;;;6200259;28;81201;-62
2023/06/05 06:33:24;;;;;;;7.72;2.83;;;23.10;50.20;;;;;;6200207;28;80636;-62
2023/06/05 06:36:26;;;;;;;5.80;2.95;;;23.10;50.20;;;;;;6200848;28;82675;-63
2023/06/05 06:39:26;;;;;;;9.07;2.78;;;23.10;50.20;;;;;;6200911;28;81089;-61
2023/06/05 06:42:27;;;;;;;4.20;2.97;;;23.10;50.20;;;;;;6200487;28;81011;-62
2023/06/05 06:45:35;;;;;;;6.13;2.90;;;23.10;50.10;;;;;;6173189;28;81432;-62
2023/06/05 06:48:36;;;;;;;5.53;2.80;;;23.10;50.10;;;;;;6188405;28;80528;-67
2023/06/05 06:51:37;;;;;;;5.32;2.65;;;23.10;50.00;;;;;;6176750;28;80864;-67
2023/06/05 06:54:37;;;;;;;9.18;3.15;;;23.20;50.00;;;;;;6191155;28;80602;-68
2023/06/05 06:57:38;;;;;;;5.75;3.13;;;23.20;50.00;;;;;;6191995;28;81016;-69
2023/06/05 07:00:40;;;;;;;6.32;3.17;;;23.20;50.00;;;;;;6184557;28;80621;-68
2023/06/05 07:03:41;;;;;;;4.78;2.72;;;23.20;49.80;;;;;;6193213;28;80897;-67
2023/06/05 07:06:42;;;;;;;3.40;2.60;;;23.20;49.90;;;;;;6199562;28;81610;-62
2023/06/05 07:09:42;;;;;;;5.20;2.65;;;23.20;49.90;;;;;;6204194;28;81220;-63
2023/06/05 07:12:43;;;;;;;5.72;2.83;;;23.20;50.00;;;;;;6194461;28;81952;-60
2023/06/05 07:15:43;;;;;;;4.78;2.60;;;23.20;49.80;;;;;;6187897;28;80443;-65
2023/06/05 07:18:44;;;;;;;4.32;2.70;;;23.30;49.80;;;;;;6179777;28;83746;-67
2023/06/05 07:21:45;;;;;;;6.03;3.10;;;23.20;49.70;;;;;;6194866;28;81563;-68
2023/06/05 07:24:46;;;;;;;5.30;3.38;;;23.30;50.00;;;;;;6204937;28;80928;-66
2023/06/05 07:27:46;;;;;;;8.32;3.28;;;23.30;50.10;;;;;;6202172;28;83978;-69
2023/06/05 07:30:47;;;;;;;4.75;3.28;;;23.30;50.10;;;;;;6204675;28;81302;-64
2023/06/05 07:33:47;;;;;;;5.82;2.60;;;23.40;50.10;;;;;;6205056;28;80385;-67
2023/06/05 07:36:48;;;;;;;6.07;2.90;;;23.40;50.10;;;;;;6205410;28;80723;-66
2023/06/05 07:39:50;;;;;;;6.07;3.20;;;23.40;50.20;;;;;;6204751;28;83027;-65
2023/06/05 07:42:50;;;;;;;5.18;2.85;;;23.40;50.20;;;;;;6195411;28;82276;-66
2023/06/05 07:45:51;;;;;;;6.65;2.80;;;23.40;50.00;;;;;;6191319;28;80635;-66
2023/06/05 07:48:51;;;;;;;8.27;3.00;;;23.50;50.10;;;;;;6196584;28;81047;-66
2023/06/05 07:51:52;;;;;;;4.13;2.78;;;23.50;50.00;;;;;;6193342;28;81877;-67
2023/06/05 07:54:52;;;;;;;8.15;2.88;;;23.50;50.00;;;;;;6197528;28;84160;-66
2023/06/05 07:57:53;;;;;;;4.28;2.50;;;23.50;49.80;;;;;;6204664;28;81947;-66
2023/06/05 08:00:53;;;;;;;4.07;2.80;;;23.50;50.50;;;;;;6203802;28;80077;-66
2023/06/05 08:03:55;;;;;;;6.88;2.65;;;23.60;49.90;;;;;;6202267;28;80835;-64
2023/06/05 08:06:55;;;;;;;4.22;3.20;;;23.60;49.80;;;;;;6201894;28;81103;-66
2023/06/05 08:09:56;;;;;;;4.90;2.85;;;23.60;49.80;;;;;;6195583;28;80574;-64
2023/06/05 08:12:57;;;;;;;7.50;3.17;;;23.60;49.70;;;;;;6196882;28;82151;-63
2023/06/05 08:15:57;;;;;;;5.20;2.80;;;23.70;49.70;;;;;;6190747;28;81576;-63
2023/06/05 08:18:58;;;;;;;3.58;2.50;;;23.70;49.70;;;;;;6204218;28;80694;-63
2023/06/05 08:21:58;;;;;;;3.95;2.70;;;23.70;49.80;;;;;;6204755;28;80689;-64
2023/06/05 08:25:00;;;;;;;5.45;2.70;;;23.80;49.70;;;;;;6200610;28;81034;-64
2023/06/05 08:28:00;;;;;;;3.35;2.35;;;23.70;49.60;;;;;;6202159;28;80619;-63
2023/06/05 08:31:01;;;;;;;5.20;2.55;;;23.80;49.60;;;;;;6188602;28;82537;-64
2023/06/05 08:34:01;;;;;;;5.10;2.70;;;23.80;49.60;;;;;;6186898;28;81115;-62
2023/06/05 08:37:02;;;;;;;6.93;2.90;;;23.80;49.60;;;;;;6189781;28;80481;-64
2023/06/05 08:40:10;;;;;;;6.47;2.60;;;23.80;49.60;;;;;;6191279;28;80775;-62
2023/06/05 08:43:11;;;;;;;3.60;2.72;;;23.90;49.60;;;;;;6201750;28;80821;-61
2023/06/05 08:46:11;;;;;;;4.78;2.60;;;23.80;50.00;;;;;;6191505;28;81804;-62
2023/06/05 08:49:12;;;;;;;4.15;2.67;;;23.80;51.40;;;;;;6203195;28;80539;-58
2023/06/05 08:52:14;;;;;;;5.40;2.95;;;23.80;52.40;;;;;;6204414;28;82318;-61
2023/06/05 08:55:14;;;;;;;2.80;2.08;;;23.80;51.60;;;;;;6200709;28;82497;-62
2023/06/05 08:58:15;;;;;;;5.00;2.30;;;23.80;51.40;;;;;;6203689;28;80881;-62
2023/06/05 09:01:16;;;;;;;4.18;2.35;;;23.80;51.00;;;;;;6203926;28;81059;-61
2023/06/05 09:04:16;;;;;;;2.88;2.08;;;23.80;50.60;;;;;;6203376;28;80791;-61
2023/06/05 09:07:17;;;;;;;3.58;2.47;;;23.90;50.50;;;;;;6200832;28;80698;-60
2023/06/05 09:10:18;;;;;;;4.07;2.50;;;23.90;50.30;;;;;;6202008;28;80482;-65
2023/06/05 09:13:19;;;;;;;4.40;2.60;;;23.90;50.20;;;;;;6197950;28;80712;-62
2023/06/05 09:16:19;;;;;;;4.00;2.47;;;23.90;50.30;;;;;;6200932;28;81583;-61
2023/06/05 09:19:25;;;;;;;3.22;2.28;;;23.90;50.10;;;;;;6199710;28;80660;-62
2023/06/05 09:22:26;;;;;;;3.87;2.47;;;23.90;50.10;;;;;;6181879;28;81770;-62
2023/06/05 09:25:28;;;;;;;5.03;2.75;;;23.90;50.10;;;;;;6181791;28;80685;-62
2023/06/05 09:28:29;;;;;;;3.00;2.42;;;23.90;49.90;;;;;;6194308;28;81397;-59
2023/06/05 09:31:29;;;;;;;5.38;2.63;;;23.90;50.00;;;;;;6196112;28;80344;-61
2023/06/05 09:34:30;;;;;;;3.35;2.08;;;23.90;49.80;;;;;;6193422;28;80820;-61
2023/06/05 09:37:30;;;;;;;4.65;2.53;;;24.00;49.70;;;;;;6194237;28;81156;-61
2023/06/05 09:40:31;;;;;;;3.83;2.25;;;24.00;49.90;;;;;;6195253;28;80544;-61
2023/06/05 09:43:31;;;;;;;4.88;2.22;;;24.00;49.90;;;;;;6186336;28;80882;-62
2023/06/05 09:46:32;;;;;;;12.10;2.55;;;24.00;49.70;;;;;;6180981;28;81952;-61
2023/06/05 09:49:33;;;;;;;3.53;2.03;;;24.00;49.60;;;;;;6200056;28;80411;-61
2023/06/05 09:52:33;;;;;;;3.85;2.33;;;24.00;49.60;;;;;;6193383;28;81482;-62
2023/06/05 09:55:34;;;;;;;3.88;2.60;;;24.00;49.60;;;;;;6195069;28;81402;-62
2023/06/05 09:58:34;;;;;;;4.05;2.20;;;24.00;49.60;;;;;;6192841;28;80786;-62
2023/06/05 10:01:35;;;;;;;3.58;2.10;;;24.00;49.40;;;;;;6192247;28;80923;-59
2023/06/05 10:04:36;;;;;;;5.10;2.38;;;24.00;49.30;;;;;;6187261;28;80985;-63
2023/06/05 10:07:36;;;;;;;3.72;2.08;;;24.00;49.30;;;;;;6187964;28;80985;-61
2023/06/05 10:10:37;;;;;;;2.38;2.05;;;24.00;49.30;;;;;;6199997;28;81255;-66
2023/06/05 10:13:37;;;;;;;4.13;2.25;;;24.10;49.20;;;;;;6186890;28;80459;-67
2023/06/05 10:16:38;;;;;;;3.72;2.53;;;24.10;49.10;;;;;;6194971;28;81099;-68
2023/06/05 10:19:38;;;;;;;4.57;2.40;;;24.10;49.30;;;;;;6195297;28;81442;-67
2023/06/05 10:22:40;;;;;;;5.57;2.38;;;24.10;49.20;;;;;;6196143;28;80781;-68
2023/06/05 10:25:41;;;;;;;2.20;1.90;;;24.10;49.20;;;;;;6181964;28;83976;-66
2023/06/05 10:28:41;;;;;;;3.42;2.30;;;24.10;49.20;;;;;;6194334;28;80807;-67
2023/06/05 10:31:42;;;;;;;4.90;2.30;;;24.10;49.20;;;;;;6190384;28;81025;-68
2023/06/05 10:34:47;;;;;;;4.30;2.10;;;24.10;49.20;;;;;;6196586;28;80710;-67
2023/06/05 10:37:48;;;;;;;5.82;2.20;;;24.10;49.20;;;;;;6197620;28;81559;-72
2023/06/05 10:40:49;;;;;;;2.67;1.80;;;24.20;49.20;;;;;;6202241;28;80277;-65
2023/06/05 10:43:49;;;;;;;3.40;1.98;;;24.10;49.20;;;;;;6195054;28;80430;-66
2023/06/05 10:46:50;;;;;;;3.10;2.30;;;24.10;49.10;;;;;;6179678;28;80816;-67
2023/06/05 10:49:50;;;;;;;2.67;2.08;;;24.20;49.20;;;;;;6199010;28;81136;-66
2023/06/05 10:52:51;;;;;;;2.80;2.10;;;24.20;49.20;;;;;;6198500;28;80824;-68
2023/06/05 10:55:51;;;;;;;3.58;2.13;;;24.20;49.20;;;;;;6182948;28;80374;-66
2023/06/05 10:58:52;;;;;;;4.53;1.98;;;24.20;49.20;;;;;;6192871;28;80378;-67
2023/06/05 11:01:53;;;;;;;5.00;2.00;;;24.30;49.30;;;;;;6198601;28;81863;-66
2023/06/05 11:04:55;;;;;;;3.55;2.92;;;24.20;49.20;;;;;;6186732;28;81687;-70
2023/06/05 11:07:55;;;;;;;3.90;2.35;;;24.30;49.20;;;;;;6194917;28;80243;-68
2023/06/05 11:10:56;;;;;;;4.97;2.53;;;24.30;49.20;;;;;;6192947;28;81117;-67
2023/06/05 11:13:57;;;;;;;8.10;2.22;;;24.30;49.20;;;;;;6184375;28;83399;-67
2023/06/05 11:16:57;;;;;;;4.70;2.03;;;24.30;49.20;;;;;;6198849;28;80712;-65
2023/06/05 11:19:58;;;;;;;5.18;2.33;;;24.30;49.20;;;;;;6195075;28;81196;-67
2023/06/05 11:22:58;;;;;;;3.38;2.00;;;24.30;49.20;;;;;;6185865;28;80855;-66
2023/06/05 11:25:59;;;;;;;1.92;1.70;;;24.30;49.20;;;;;;6199582;28;80473;-61
2023/06/05 11:29:00;;;;;;;2.63;2.00;;;24.30;49.20;;;;;;6200106;28;80421;-62
2023/06/05 11:32:00;;;;;;;2.97;2.17;;;24.30;49.10;;;;;;6197960;28;80616;-62
2023/06/05 11:35:01;;;;;;;3.70;2.45;;;24.30;48.60;;;;;;6197397;28;80485;-63
2023/06/05 11:38:01;;;;;;;6.00;2.70;;;24.30;48.60;;;;;;6198125;28;80720;-62
2023/06/05 11:41:02;;;;;;;4.50;2.67;;;24.40;48.40;;;;;;6200863;28;80693;-63
2023/06/05 11:44:02;;;;;;;4.32;2.33;;;24.30;48.10;;;;;;6190288;28;81401;-60
2023/06/05 11:47:03;;;;;;;6.80;2.85;;;24.40;48.50;;;;;;6188448;28;81333;-61
2023/06/05 11:50:03;;;;;;;5.70;2.70;;;24.30;48.50;;;;;;6184003;28;80570;-66
2023/06/05 11:53:04;;;;;;;6.95;3.08;;;24.40;48.50;;;;;;6191649;28;83098;-70
2023/06/05 11:59:05;;;;;;;7.05;3.17;;;24.40;49.40;;;;;;6202878;28;82939;-67
2023/06/05 12:02:06;;;;;;;9.63;3.63;;;24.40;49.60;;;;;;6200706;28;80359;-67
2023/06/05 12:05:10;;;;;;;9.75;4.18;;;24.40;50.70;;;;;;6198746;28;83126;-68
2023/06/05 12:08:12;;;;;;;7.00;4.30;;;24.40;51.00;;;;;;6196667;28;80603;-72
2023/06/05 12:11:13;;;;;;;10.68;3.80;;;24.40;51.00;;;;;;6195472;28;80809;-68
2023/06/05 12:14:13;;;;;;;11.32;4.20;;;24.40;51.10;;;;;;6197066;28;82316;-68
2023/06/05 12:17:14;;;;;;;7.57;3.63;;;24.40;50.90;;;;;;6197550;28;80475;-68
2023/06/05 12:20:14;;;;;;;8.68;4.03;;;24.50;50.80;;;;;;6197076;28;81793;-68
2023/06/05 12:23:15;;;;;;;9.20;3.95;;;24.50;50.60;;;;;;6204555;28;80978;-68
2023/06/05 12:26:16;;;;;;;9.52;4.50;;;24.50;50.50;;;;;;6194714;28;80726;-73
2023/06/05 12:29:17;;;;;;;8.32;4.20;;;24.50;50.30;;;;;;6202510;28;80572;-72
2023/06/05 12:32:17;;;;;;;6.07;3.83;;;24.50;50.10;;;;;;6181460;28;83767;-68
2023/06/05 12:35:18;;;;;;;9.52;3.80;;;24.50;49.90;;;;;;6189963;28;80576;-71
2023/06/05 12:38:19;;;;;;;9.15;3.97;;;24.50;50.00;;;;;;6194856;28;81716;-69
2023/06/05 12:41:20;;;;;;;9.25;3.88;;;24.50;49.90;;;;;;6191399;28;82055;-69
2023/06/05 12:44:20;;;;;;;7.68;3.38;;;24.50;49.70;;;;;;6194570;28;85202;-68
2023/06/05 12:47:22;;;;;;;8.00;3.83;;;24.50;49.60;;;;;;6181850;28;81598;-69
2023/06/05 12:50:22;;;;;;;6.53;3.15;;;24.50;49.60;;;;;;6191482;28;82087;-65
2023/06/05 12:53:23;;;;;;;8.32;4.32;;;24.50;49.50;;;;;;6199410;28;80804;-63
2023/06/05 12:56:26;;;;;;;6.65;3.47;;;24.60;49.40;;;;;;6201303;28;80886;-64
2023/06/05 12:59:27;;;;;;;7.43;4.00;;;24.60;49.60;;;;;;6199118;28;81106;-64
2023/06/05 13:02:29;;;;;;;7.40;3.40;;;24.60;49.30;;;;;;6200037;28;80569;-63
2023/06/05 13:05:31;;;;;;;6.20;3.17;;;24.60;49.60;;;;;;6190703;28;80672;-64
2023/06/05 13:08:32;;;;;;;9.35;3.97;;;24.60;49.50;;;;;;6200306;28;81150;-65
2023/06/05 13:11:32;;;;;;;8.40;3.65;;;24.60;49.50;;;;;;6199140;28;82488;-66
2023/06/05 13:14:34;;;;;;;7.43;3.97;;;24.60;49.60;;;;;;6199625;28;80134;-65
2023/06/05 13:17:35;;;;;;;9.73;3.35;;;24.50;49.60;;;;;;6197391;28;80454;-65
2023/06/05 13:20:36;;;;;;;6.32;3.00;;;24.60;49.70;;;;;;6190982;28;80911;-64
2023/06/05 13:23:36;;;;;;;6.82;3.25;;;24.50;49.60;;;;;;6197852;28;80558;-66
2023/06/05 13:26:37;;;;;;;4.80;3.08;;;24.50;49.50;;;;;;6193664;28;80958;-64
2023/06/05 13:29:37;;;;;;;10.02;3.40;;;24.50;49.60;;;;;;6176301;28;80971;-64
2023/06/05 13:32:38;;;;;;;6.22;3.38;;;24.50;49.60;;;;;;6186728;28;81119;-71
2023/06/05 13:35:39;;;;;;;6.20;3.28;;;24.50;49.50;;;;;;6196181;28;80506;-71
2023/06/05 13:38:39;;;;;;;6.35;3.08;;;24.40;49.60;;;;;;6189894;28;80507;-71
2023/06/05 13:41:40;;;;;;;5.53;3.33;;;24.50;49.80;;;;;;6185475;28;80993;-71
2023/06/05 13:44:40;;;;;;;8.25;3.35;;;24.40;49.70;;;;;;6177657;28;91245;-71
2023/06/05 13:47:41;;;;;;;4.13;3.08;;;24.40;49.70;;;;;;6200371;28;80088;-69
2023/06/05 13:50:41;;;;;;;10.55;4.15;;;24.40;49.80;;;;;;6202357;28;81447;-69
2023/06/05 13:53:42;;;;;;;5.18;3.15;;;24.40;49.80;;;;;;6193849;28;80675;-71
2023/06/05 13:56:42;;;;;;;5.00;3.15;;;24.40;49.90;;;;;;6189031;28;80618;-73
2023/06/05 13:59:43;;;;;;;8.13;3.20;;;24.40;50.50;;;;;;6186839;28;81185;-71
2023/06/05 14:02:44;;;;;;;5.45;2.83;;;24.40;49.90;;;;;;6191128;28;80999;-68
2023/06/05 14:05:44;;;;;;;4.78;3.35;;;24.30;49.70;;;;;;6179101;28;80983;-70
2023/06/05 14:08:45;;;;;;;5.18;2.88;;;24.40;49.90;;;;;;6200800;28;80462;-70
2023/06/05 14:11:45;;;;;;;5.32;3.33;;;24.30;49.80;;;;;;6188635;28;80896;-70
2023/06/05 14:14:46;;;;;;;6.15;2.83;;;24.30;50.00;;;;;;6162963;28;81440;-72
2023/06/05 14:17:46;;;;;;;3.08;2.65;;;24.30;49.90;;;;;;6196108;28;80597;-70
2023/06/05 14:20:47;;;;;;;7.13;3.60;;;24.30;50.00;;;;;;6202080;28;80891;-70
2023/06/05 14:23:47;;;;;;;7.13;3.13;;;24.30;49.90;;;;;;6201868;28;80124;-73
2023/06/05 14:26:48;;;;;;;7.25;2.72;;;24.30;50.00;;;;;;6200833;28;80941;-71
2023/06/05 14:29:49;;;;;;;4.05;2.78;;;24.30;50.10;;;;;;6201781;28;81049;-65
2023/06/05 14:32:49;;;;;;;3.83;2.65;;;24.30;50.10;;;;;;6200657;28;80351;-66
2023/06/05 14:35:50;;;;;;;5.50;3.00;;;24.30;50.00;;;;;;6199835;28;81320;-65
2023/06/05 14:38:51;;;;;;;6.00;3.10;;;24.20;50.20;;;;;;6194331;28;81928;-65
2023/06/05 14:41:51;;;;;;;4.57;2.80;;;24.30;50.10;;;;;;6181467;28;80594;-65
2023/06/05 14:44:52;;;;;;;4.43;2.58;;;24.30;50.10;;;;;;6184238;28;80273;-64
2023/06/05 14:47:53;;;;;;;4.82;2.92;;;24.20;50.10;;;;;;6183542;28;81663;-64
2023/06/05 14:50:53;;;;;;;7.47;2.70;;;24.20;50.20;;;;;;6182673;28;83576;-64
2023/06/05 14:53:54;;;;;;;5.97;3.10;;;24.20;50.20;;;;;;6199072;28;80882;-64
2023/06/05 14:56:54;;;;;;;4.88;3.08;;;24.20;50.30;;;;;;6198648;28;84114;-62
2023/06/05 14:59:55;;;;;;;4.75;2.85;;;24.10;50.20;;;;;;6179079;28;84757;-64
2023/06/05 15:02:55;;;;;;;3.22;2.60;;;24.20;50.30;;;;;;6188858;28;84168;-64
2023/06/05 15:05:56;;;;;;;4.38;2.60;;;24.10;50.30;;;;;;6195729;28;80492;-60
2023/06/05 15:08:56;;;;;;;4.47;2.67;;;24.10;50.40;;;;;;6169116;28;85116;-68
2023/06/05 15:11:57;;;;;;;4.93;2.92;;;24.10;50.70;;;;;;6188772;28;83097;-63
2023/06/05 15:14:57;;;;;;;6.25;2.72;;;24.20;51.10;;;;;;6194413;28;80687;-62
2023/06/05 15:17:58;;;;;;;5.93;2.95;;;24.20;51.40;;;;;;6181522;28;80701;-63
2023/06/05 15:20:59;;;;;;;6.65;2.58;;;24.10;51.40;;;;;;6197534;28;81541;-69
2023/06/05 15:23:59;;;;;;;9.85;2.70;;;24.10;51.70;;;;;;6184440;28;80543;-62
2023/06/05 15:27:00;;;;;;;7.43;2.67;;;24.10;52.20;;;;;;6196970;28;80525;-68
2023/06/05 15:30:01;;;;;;;8.98;3.03;;;24.20;52.50;;;;;;6196255;28;81561;-65
2023/06/05 15:33:02;;;;;;;7.65;2.65;;;24.20;52.40;;;;;;6199748;28;80429;-67
2023/06/05 15:36:03;;;;;;;10.65;2.80;;;24.20;52.60;;;;;;6194783;28;81777;-66
2023/06/05 15:39:04;;;;;;;15.73;3.13;;;24.20;53.10;;;;;;6199048;28;81324;-64
2023/06/05 15:42:05;;;;;;;9.50;3.33;;;24.20;53.50;;;;;;6199794;28;80421;-75